createdAt,value
2019-04-22T00:01:28.615Z,7.92
2019-04-22T00:04:01.358Z,7.93
2019-04-22T00:06:51.700Z,7.93
2019-04-22T00:09:24.159Z,7.95
2019-04-22T00:11:52.881Z,7.98
2019-04-22T00:14:18.059Z,7.98
2019-04-22T00:16:51.682Z,7.99
2019-04-22T00:19:33.881Z,7.95
2019-04-22T00:21:55.233Z,7.91
2019-04-22T00:24:24.323Z,7.84
2019-04-22T00:26:59.614Z,7.75
2019-04-22T00:29:46.251Z,7.67
2019-04-22T00:31:59.026Z,7.58
2019-04-22T00:34:29.442Z,7.50
2019-04-22T00:37:02.116Z,7.41
2019-04-22T00:39:35.900Z,7.31
2019-04-22T00:42:08.082Z,7.24
2019-04-22T00:44:41.572Z,7.20
2019-04-22T00:47:08.659Z,7.16
2019-04-22T00:50:06.628Z,7.15
2019-04-22T00:52:09.618Z,7.13
2019-04-22T00:54:43.870Z,7.15
2019-04-22T00:57:10.440Z,7.16
2019-04-22T00:59:37.585Z,7.18
2019-04-22T01:02:13.145Z,7.23
2019-04-22T01:04:46.496Z,7.28
2019-04-22T01:07:15.488Z,7.32
2019-04-22T01:09:44.689Z,7.37
2019-04-22T01:12:13.831Z,7.41
2019-04-22T01:14:41.333Z,7.43
2019-04-22T01:17:11.595Z,7.40
2019-04-22T01:19:52.290Z,7.41
2019-04-22T01:22:17.768Z,7.43
2019-04-22T01:24:38.703Z,7.44
2019-04-22T01:27:10.534Z,7.44
2019-04-22T01:29:39.760Z,7.39
2019-04-22T01:31:56.446Z,7.33
2019-04-22T01:34:40.074Z,7.28
2019-04-22T01:37:18.763Z,7.24
2019-04-22T01:39:49.891Z,7.21
2019-04-22T01:42:20.216Z,7.16
2019-04-22T01:44:50.993Z,7.09
2019-04-22T01:47:25.135Z,7.04
2019-04-22T01:49:55.678Z,7.01
2019-04-22T01:52:24.789Z,6.96
2019-04-22T01:55:02.171Z,6.91
2019-04-22T01:57:22.949Z,6.88
2019-04-22T01:59:55.213Z,6.82
2019-04-22T02:02:31.080Z,6.73
2019-04-22T02:04:59.651Z,6.62
2019-04-22T02:07:29.524Z,6.51
2019-04-22T02:09:55.549Z,6.39
2019-04-22T02:12:36.792Z,6.29
2019-04-22T02:14:57.845Z,6.18
2019-04-22T02:17:41.536Z,6.10
2019-04-22T02:20:04.031Z,6.05
2019-04-22T02:22:50.855Z,6.04
2019-04-22T02:25:08.808Z,6.01
2019-04-22T02:27:43.754Z,6.04
2019-04-22T02:30:06.158Z,6.06
2019-04-22T02:32:52.022Z,6.06
2019-04-22T02:35:10.964Z,6.12
2019-04-22T02:37:35.831Z,6.14
2019-04-22T02:40:09.701Z,6.14
2019-04-22T02:42:35.052Z,6.16
2019-04-22T02:45:09.660Z,6.21
2019-04-22T02:47:42.194Z,6.21
2019-04-22T02:50:08.850Z,6.22
2019-04-22T03:00:27.376Z,6.18
2019-04-22T03:05:19.548Z,6.32
2019-04-22T03:07:54.374Z,6.33
2019-04-22T03:10:30.130Z,6.36
2019-04-22T03:12:41.887Z,6.39
2019-04-22T03:15:13.564Z,6.39
2019-04-22T03:17:45.252Z,6.38
2019-04-22T03:22:47.618Z,6.41
2019-04-22T03:37:52.618Z,6.47
2019-04-22T03:40:30.859Z,6.52
2019-04-22T03:42:59.700Z,6.55
2019-04-22T03:50:25.915Z,6.62
2019-04-22T03:57:51.915Z,6.60
2019-04-22T04:00:35.991Z,6.63
2019-04-22T04:05:50.285Z,6.68
2019-04-22T04:08:15.101Z,6.70
2019-04-22T04:10:35.331Z,6.73
2019-04-22T04:13:02.768Z,6.75
2019-04-22T04:17:55.050Z,6.77
2019-04-22T04:20:34.803Z,6.77
2019-04-22T04:28:29.832Z,6.79
2019-04-22T04:32:56.646Z,6.80
2019-04-22T04:37:55.644Z,6.90
2019-04-22T04:43:05.684Z,6.97
2019-04-22T04:50:44.119Z,7.06
2019-04-22T04:53:19.385Z,7.14
2019-04-22T05:00:58.020Z,7.26
2019-04-22T05:03:10.693Z,7.29
2019-04-22T05:05:39.615Z,7.35
2019-04-22T05:08:01.053Z,7.40
2019-04-22T05:10:49.720Z,7.44
2019-04-22T05:13:26.069Z,7.49
2019-04-22T05:15:55.337Z,7.54
2019-04-22T05:20:50.624Z,7.67
2019-04-22T05:23:07.355Z,7.68
2019-04-22T05:25:31.661Z,7.72
2019-04-22T05:28:10.340Z,7.78
2019-04-22T05:30:58.965Z,7.81
2019-04-22T05:33:18.973Z,7.83
2019-04-22T05:35:46.420Z,7.85
2019-04-22T05:38:22.008Z,7.87
2019-04-22T05:40:48.442Z,7.88
2019-04-22T05:43:14.038Z,7.91
2019-04-22T05:45:43.293Z,7.96
2019-04-22T05:48:18.866Z,8.00
2019-04-22T05:50:50.437Z,8.04
2019-04-22T05:53:16.548Z,8.05
2019-04-22T05:55:51.782Z,8.10
2019-04-22T05:58:15.333Z,8.12
2019-04-22T06:01:21.397Z,8.12
2019-04-22T06:03:32.948Z,8.10
2019-04-22T06:05:55.045Z,8.08
2019-04-22T06:08:31.019Z,8.05
2019-04-22T06:11:04.403Z,8.03
2019-04-22T06:13:27.869Z,7.98
2019-04-22T06:15:57.149Z,7.94
2019-04-22T06:18:35.860Z,7.91
2019-04-22T06:21:09.399Z,7.88
2019-04-22T06:26:09.872Z,7.86
2019-04-22T06:31:11.767Z,7.84
2019-04-22T06:33:34.853Z,7.82
2019-04-22T06:38:35.897Z,7.79
2019-04-22T06:41:09.075Z,7.80
2019-04-22T06:43:44.652Z,7.79
2019-04-22T06:46:29.936Z,7.77
2019-04-22T06:48:54.745Z,7.74
2019-04-22T06:51:26.992Z,7.70
2019-04-22T06:53:59.154Z,7.68
2019-04-22T06:56:22.045Z,7.67
2019-04-22T06:58:59.084Z,7.66
2019-04-22T07:01:36.921Z,7.65
2019-04-22T07:03:59.780Z,7.65
2019-04-22T07:11:23.737Z,7.67
2019-04-22T07:14:01.587Z,7.66
2019-04-22T07:16:32.358Z,7.68
2019-04-22T07:19:05.638Z,7.70
2019-04-22T07:21:30.509Z,7.73
2019-04-22T07:24:07.102Z,7.76
2019-04-22T07:26:29.183Z,7.79
2019-04-22T07:29:01.473Z,7.81
2019-04-22T07:31:37.290Z,7.84
2019-04-22T07:34:08.441Z,7.89
2019-04-22T07:39:03.977Z,8.00
2019-04-22T07:41:38.391Z,8.02
2019-04-22T07:44:13.190Z,8.02
2019-04-22T07:46:41.472Z,8.05
2019-04-22T07:51:49.506Z,8.10
2019-04-22T07:54:06.261Z,8.13
2019-04-22T07:56:40.962Z,8.18
2019-04-22T07:59:09.615Z,8.23
2019-04-22T08:01:35.582Z,8.28
2019-04-22T08:04:16.197Z,8.32
2019-04-22T08:06:46.036Z,8.35
2019-04-22T08:09:15.153Z,8.37
2019-04-22T08:14:14.482Z,8.41
2019-04-22T08:16:43.991Z,8.41
2019-04-22T08:19:15.497Z,8.44
2019-04-22T08:21:47.392Z,8.45
2019-04-22T08:24:17.962Z,8.47
2019-04-22T08:26:46.415Z,8.49
2019-04-22T08:29:23.172Z,8.52
2019-04-22T08:31:48.686Z,8.52
2019-04-22T08:37:11.825Z,8.62
2019-04-22T08:39:21.463Z,8.69
2019-04-22T08:41:43.800Z,8.76
2019-04-22T08:44:17.022Z,8.87
2019-04-22T08:46:56.158Z,8.93
2019-04-22T08:49:10.228Z,8.99
2019-04-22T08:51:49.079Z,9.09
2019-04-22T08:54:19.057Z,9.19
2019-04-22T08:56:58.158Z,9.31
2019-04-22T08:59:21.721Z,9.43
2019-04-22T09:01:51.851Z,9.51
2019-04-22T09:04:19.192Z,9.62
2019-04-22T09:09:24.992Z,9.78
2019-04-22T09:11:57.849Z,9.86
2019-04-22T09:14:28.111Z,9.90
2019-04-22T09:16:51.200Z,9.99
2019-04-22T09:19:25.054Z,10.07
2019-04-22T09:24:23.381Z,10.17
2019-04-22T09:26:55.223Z,10.23
2019-04-22T09:29:32.607Z,10.24
2019-04-22T09:32:01.773Z,10.23
2019-04-22T09:34:27.780Z,10.24
2019-04-22T09:37:07.839Z,10.29
2019-04-22T09:39:30.253Z,10.36
2019-04-22T09:42:02.516Z,10.46
2019-04-22T09:44:34.667Z,10.54
2019-04-22T09:47:05.135Z,10.61
2019-04-22T09:49:38.413Z,10.64
2019-04-22T09:52:00.081Z,10.73
2019-04-22T09:54:38.703Z,10.78
2019-04-22T09:57:01.824Z,10.81
2019-04-22T09:59:36.729Z,10.80
2019-04-22T10:04:34.950Z,10.76
2019-04-22T10:07:01.278Z,10.80
2019-04-22T10:09:51.784Z,10.82
2019-04-22T10:12:02.800Z,10.84
2019-04-22T10:14:42.500Z,10.82
2019-04-22T10:17:09.955Z,10.83
2019-04-22T10:19:37.728Z,10.88
2019-04-22T10:22:14.969Z,10.93
2019-04-22T10:24:43.251Z,10.97
2019-04-22T10:27:07.215Z,10.99
2019-04-22T10:29:41.931Z,11.01
2019-04-22T10:32:06.727Z,11.02
2019-04-22T10:34:26.979Z,11.02
2019-04-22T10:36:50.994Z,11.05
2019-04-22T10:39:16.258Z,11.10
2019-04-22T10:41:46.381Z,11.14
2019-04-22T10:44:15.375Z,11.18
2019-04-22T10:46:46.276Z,11.18
2019-04-22T10:49:15.977Z,11.17
2019-04-22T10:51:44.848Z,11.12
2019-04-22T10:54:13.643Z,11.04
2019-04-22T10:56:43.268Z,10.98
2019-04-22T10:59:11.906Z,10.94
2019-04-22T11:01:44.508Z,10.95
2019-04-22T11:04:13.363Z,11.01
2019-04-22T11:06:50.680Z,11.00
2019-04-22T11:09:12.882Z,10.97
2019-04-22T11:11:52.335Z,10.98
2019-04-22T11:14:13.140Z,10.98
2019-04-22T11:16:41.803Z,10.96
2019-04-22T11:19:11.857Z,10.94
2019-04-22T11:21:41.324Z,10.86
2019-04-22T11:24:12.608Z,10.85
2019-04-22T11:26:41.244Z,10.86
2019-04-22T11:29:10.218Z,10.87
2019-04-22T11:31:39.331Z,10.82
2019-04-22T11:34:08.929Z,10.74
2019-04-22T11:36:38.925Z,10.70
2019-04-22T11:39:10.832Z,10.70
2019-04-22T11:41:38.239Z,10.72
2019-04-22T11:44:07.579Z,10.70
2019-04-22T11:46:36.420Z,10.68
2019-04-22T11:49:05.852Z,10.70
2019-04-22T11:51:35.995Z,10.78
2019-04-22T11:54:05.265Z,10.76
2019-04-22T11:56:34.905Z,10.81
2019-04-22T11:59:04.856Z,10.83
2019-04-22T12:01:34.944Z,10.91
2019-04-22T12:04:04.149Z,10.94
2019-04-22T12:06:33.762Z,11.05
2019-04-22T12:09:03.841Z,11.33
2019-04-22T12:11:32.562Z,11.73
2019-04-22T12:14:02.125Z,11.86
2019-04-22T12:16:31.671Z,11.99
2019-04-22T12:19:00.892Z,12.11
2019-04-22T12:21:31.102Z,12.25
2019-04-22T12:24:01.105Z,12.34
2019-04-22T12:26:30.677Z,12.43
2019-04-22T12:28:59.592Z,12.58
2019-04-22T12:31:29.326Z,12.61
2019-04-22T12:33:59.306Z,12.66
2019-04-22T12:36:28.765Z,12.71
2019-04-22T12:38:58.037Z,12.75
2019-04-22T12:41:27.784Z,12.78
2019-04-22T12:43:56.746Z,12.78
2019-04-22T12:46:26.107Z,12.85
2019-04-22T12:48:56.259Z,12.82
2019-04-22T12:51:27.244Z,12.82
2019-04-22T12:53:57.180Z,12.83
2019-04-22T12:56:27.498Z,12.83
2019-04-22T12:58:56.761Z,12.89
2019-04-22T13:01:26.754Z,12.93
2019-04-22T13:04:02.047Z,13.01
2019-04-22T13:06:27.948Z,12.98
2019-04-22T13:08:57.212Z,12.90
2019-04-22T13:11:30.801Z,12.89
2019-04-22T13:13:56.750Z,12.84
2019-04-22T13:16:26.982Z,12.83
2019-04-22T13:19:00.138Z,12.77
2019-04-22T13:21:28.931Z,12.70
2019-04-22T13:23:59.099Z,12.70
2019-04-22T13:26:27.846Z,12.67
2019-04-22T13:28:56.948Z,12.68
2019-04-22T13:31:26.832Z,12.70
2019-04-22T13:33:59.715Z,12.75
2019-04-22T13:36:27.934Z,12.86
2019-04-22T13:38:56.516Z,12.96
2019-04-22T13:43:56.079Z,13.23
2019-04-22T13:46:26.360Z,13.38
2019-04-22T13:49:25.214Z,13.46
2019-04-22T13:51:52.850Z,13.52
2019-04-22T13:53:53.453Z,13.07
2019-04-22T13:56:49.093Z,13.63
2019-04-22T13:59:09.226Z,13.68
2019-04-22T14:01:30.262Z,13.73
2019-04-22T14:04:00.806Z,13.75
2019-04-22T14:06:29.425Z,13.79
2019-04-22T14:08:59.071Z,13.88
2019-04-22T14:11:39.040Z,13.93
2019-04-22T14:13:58.729Z,13.96
2019-04-22T14:16:28.990Z,13.95
2019-04-22T14:18:58.205Z,13.86
2019-04-22T14:21:27.120Z,13.72
2019-04-22T14:23:56.409Z,13.70
2019-04-22T14:26:25.217Z,13.63
2019-04-22T14:28:53.868Z,13.54
2019-04-22T14:31:22.579Z,13.50
2019-04-22T14:33:55.979Z,13.46
2019-04-22T14:36:21.656Z,13.46
2019-04-22T14:38:50.277Z,13.43
2019-04-22T14:44:12.633Z,13.45
2019-04-22T14:44:49.557Z,13.43
2019-04-22T14:46:49.863Z,13.45
2019-04-22T14:49:19.413Z,13.43
2019-04-22T14:51:45.891Z,13.36
2019-04-22T14:54:10.101Z,13.24
2019-04-22T14:56:22.450Z,13.18
2019-04-22T14:58:51.248Z,13.13
2019-04-22T15:01:21.085Z,13.15
2019-04-22T15:03:50.377Z,13.09
2019-04-22T15:06:22.339Z,13.01
2019-04-22T15:08:53.996Z,12.98
2019-04-22T15:11:21.445Z,12.93
2019-04-22T15:13:51.540Z,12.92
2019-04-22T15:16:25.847Z,12.94
2019-04-22T15:18:59.967Z,12.91
2019-04-22T15:21:32.476Z,12.83
2019-04-22T15:24:04.513Z,12.74
2019-04-22T15:26:34.629Z,12.64
2019-04-22T15:29:03.425Z,12.39
2019-04-22T15:31:33.243Z,12.12
2019-04-22T15:34:02.633Z,11.97
2019-04-22T15:36:32.402Z,11.90
2019-04-22T15:39:02.861Z,11.75
2019-04-22T15:41:32.654Z,11.62
2019-04-22T15:44:01.954Z,11.38
2019-04-22T15:46:31.938Z,11.14
2019-04-22T15:49:02.133Z,10.80
2019-04-22T15:51:31.964Z,10.49
2019-04-22T15:54:01.427Z,10.25
2019-04-22T15:56:30.647Z,10.08
2019-04-22T15:58:59.794Z,10.03
2019-04-22T16:01:34.034Z,9.99
2019-04-22T16:04:00.632Z,9.92
2019-04-22T16:06:30.120Z,9.84
2019-04-22T16:08:59.978Z,9.65
2019-04-22T16:11:29.734Z,9.59
2019-04-22T16:14:00.078Z,9.53
2019-04-22T16:16:30.371Z,9.42
2019-04-22T16:19:00.645Z,9.43
2019-04-22T16:21:39.760Z,9.37
2019-04-22T16:24:20.220Z,9.41
2019-04-22T16:26:51.849Z,9.43
2019-04-22T16:29:21.289Z,9.42
2019-04-22T16:31:51.476Z,9.44
2019-04-22T16:34:21.663Z,9.43
2019-04-22T16:36:50.375Z,9.44
2019-04-22T16:39:20.610Z,9.44
2019-04-22T16:41:50.806Z,9.41
2019-04-22T16:44:20.741Z,9.36
2019-04-22T16:46:50.039Z,9.32
2019-04-22T16:49:19.417Z,9.29
2019-04-22T16:51:48.280Z,9.26
2019-04-22T16:54:18.013Z,9.22
2019-04-22T16:56:48.001Z,9.19
2019-04-22T16:59:17.083Z,9.16
2019-04-22T17:01:48.495Z,9.15
2019-04-22T17:04:20.671Z,9.11
2019-04-22T17:06:51.104Z,9.11
2019-04-22T17:09:21.517Z,9.12
2019-04-22T17:11:52.008Z,9.13
2019-04-22T17:14:29.985Z,9.14
2019-04-22T17:16:52.744Z,9.14
2019-04-22T17:19:21.772Z,9.13
2019-04-22T17:21:50.978Z,9.10
2019-04-22T17:24:19.612Z,9.12
2019-04-22T17:26:48.475Z,9.14
2019-04-22T17:29:18.666Z,9.12
2019-04-22T17:31:54.512Z,9.08
2019-04-22T17:34:17.887Z,9.10
2019-04-22T17:36:46.715Z,9.06
2019-04-22T17:39:30.650Z,8.99
2019-04-22T17:42:03.341Z,8.94
2019-04-22T17:44:42.304Z,8.90
2019-04-22T17:47:02.468Z,8.85
2019-04-22T17:49:54.095Z,8.77
2019-04-22T17:54:53.809Z,8.73
2019-04-22T17:57:23.822Z,8.71
2019-04-22T17:59:53.440Z,8.69
2019-04-22T18:02:22.615Z,8.70
2019-04-22T18:04:42.902Z,8.71
2019-04-22T18:07:29.618Z,8.72
2019-04-22T18:12:35.729Z,8.75
2019-04-22T18:15:02.749Z,8.74
2019-04-22T18:17:32.253Z,8.75
2019-04-22T18:19:53.171Z,8.74
2019-04-22T18:22:19.768Z,8.75
2019-04-22T18:24:53.162Z,8.75
2019-04-22T18:27:40.189Z,8.73
2019-04-22T18:29:58.205Z,8.75
2019-04-22T18:32:21.766Z,8.75
2019-04-22T18:34:50.573Z,8.75
2019-04-22T18:37:19.905Z,8.73
2019-04-22T18:39:57.010Z,8.77
2019-04-22T18:42:24.388Z,8.80
2019-04-22T18:45:20.366Z,8.80
2019-04-22T18:47:25.401Z,8.82
2019-04-22T18:49:54.994Z,8.86
2019-04-22T18:52:48.757Z,8.86
2019-04-22T18:55:25.140Z,8.82
2019-04-22T18:58:11.676Z,8.86
2019-04-22T19:00:29.310Z,8.86
2019-04-22T19:03:03.855Z,8.86
2019-04-22T19:05:45.427Z,8.87
2019-04-22T19:08:23.048Z,8.85
2019-04-22T19:10:57.541Z,8.85
2019-04-22T19:13:50.119Z,8.82
2019-04-22T19:16:09.693Z,8.80
2019-04-22T19:18:31.907Z,8.73
2019-04-22T19:20:57.738Z,8.73
2019-04-22T19:23:28.468Z,8.71
2019-04-22T19:25:51.158Z,8.69
2019-04-22T19:28:29.181Z,8.66
2019-04-22T19:31:05.928Z,8.63
2019-04-22T19:33:28.958Z,8.58
2019-04-22T19:35:59.868Z,8.56
2019-04-22T19:38:16.366Z,8.55
2019-04-22T19:43:28.272Z,8.48
2019-04-22T19:45:58.954Z,8.45
2019-04-22T19:51:11.350Z,8.46
2019-04-22T19:53:37.132Z,8.45
2019-04-22T19:56:01.408Z,8.42
2019-04-22T19:58:32.433Z,8.41
2019-04-22T20:01:12.976Z,8.40
2019-04-22T20:04:03.439Z,8.39
2019-04-22T20:06:38.398Z,8.36
2019-04-22T20:09:13.692Z,8.36
2019-04-22T20:11:41.398Z,8.35
2019-04-22T20:14:12.687Z,8.34
2019-04-22T20:16:34.303Z,8.31
2019-04-22T20:19:12.385Z,8.33
2019-04-22T20:21:40.565Z,8.30
2019-04-22T20:24:00.819Z,8.27
2019-04-22T20:26:45.584Z,8.26
2019-04-22T20:29:11.718Z,8.28
2019-04-22T20:31:48.654Z,8.29
2019-04-22T20:34:14.428Z,8.30
2019-04-22T20:37:03.572Z,8.29
2019-04-22T20:39:09.188Z,8.28
2019-04-22T20:41:36.620Z,8.26
2019-04-22T20:44:15.949Z,8.26
2019-04-22T20:46:44.894Z,8.23
2019-04-22T20:49:20.711Z,8.23
2019-04-22T20:51:54.209Z,8.23
2019-04-22T20:54:17.828Z,8.19
2019-04-22T20:56:48.232Z,8.15
2019-04-22T20:59:19.038Z,8.11
2019-04-22T21:01:43.235Z,8.05
2019-04-22T21:04:05.247Z,8.04
2019-04-22T21:06:47.324Z,8.02
2019-04-22T21:09:22.075Z,8.00
2019-04-22T21:11:49.407Z,7.97
2019-04-22T21:14:17.782Z,7.95
2019-04-22T21:16:56.452Z,7.93
2019-04-22T21:19:38.579Z,7.92
2019-04-22T21:22:00.163Z,7.94
2019-04-22T21:24:23.635Z,7.93
2019-04-22T21:26:56.921Z,7.94
2019-04-22T21:29:21.817Z,7.96
2019-04-22T21:31:54.596Z,7.97
2019-04-22T21:34:23.324Z,7.98
2019-04-22T21:37:02.553Z,7.99
2019-04-22T21:39:28.999Z,7.98
2019-04-22T21:41:59.765Z,7.99
2019-04-22T21:44:32.387Z,8.01
2019-04-22T21:47:10.851Z,8.00
2019-04-22T21:49:38.989Z,8.00
2019-04-22T21:52:08.102Z,7.99
2019-04-22T21:54:45.503Z,8.00
2019-04-22T21:57:33.497Z,7.99
2019-04-22T21:59:46.251Z,7.98
2019-04-22T22:02:25.186Z,8.00
2019-04-22T22:04:48.954Z,8.02
2019-04-22T22:07:11.106Z,8.04
2019-04-22T22:09:53.944Z,8.06
2019-04-22T22:12:17.823Z,8.10
2019-04-22T22:15:00.526Z,8.15
2019-04-22T22:17:25.992Z,8.16
2019-04-22T22:19:52.892Z,8.20
2019-04-22T22:22:42.116Z,8.21
2019-04-22T22:25:00.035Z,8.24
2019-04-22T22:27:34.260Z,8.28
2019-04-22T22:30:06.829Z,8.30
2019-04-22T22:32:30.386Z,8.29
2019-04-22T22:35:03.837Z,8.32
2019-04-22T22:37:22.054Z,8.33
2019-04-22T22:39:54.515Z,8.35
2019-04-22T22:42:23.815Z,8.36
2019-04-22T22:44:48.660Z,8.36
2019-04-22T22:47:35.858Z,8.36
2019-04-22T22:50:03.265Z,8.37
2019-04-22T22:52:53.272Z,8.39
2019-04-22T22:55:03.893Z,8.39
2019-04-22T22:57:39.911Z,8.40
2019-04-22T23:00:05.029Z,8.39
2019-04-22T23:02:47.233Z,8.39
2019-04-22T23:05:09.573Z,8.39
2019-04-22T23:07:42.759Z,8.40
2019-04-22T23:10:09.609Z,8.39
2019-04-22T23:15:04.689Z,8.38
2019-04-22T23:17:25.435Z,8.36
2019-04-22T23:19:52.797Z,8.33
2019-04-22T23:22:30.254Z,8.28
2019-04-22T23:25:25.189Z,8.27
2019-04-22T23:27:53.999Z,8.28
2019-04-22T23:30:38.250Z,8.28
2019-04-22T23:33:18.744Z,8.27
2019-04-22T23:35:46.590Z,8.26
2019-04-22T23:38:15.406Z,8.27
2019-04-22T23:40:52.677Z,8.21
2019-04-22T23:43:28.826Z,8.24
2019-04-22T23:45:56.695Z,8.27
2019-04-22T23:48:21.071Z,8.30
2019-04-22T23:50:57.341Z,8.31
2019-04-22T23:53:42.372Z,8.34
2019-04-22T23:56:02.679Z,8.32
2019-04-22T23:58:48.139Z,8.34
